Time;durP1;ratioP1;P1;durP2;ratioP2;P2;SDS_P1;SDS_P2;PMS_P1;PMS_P2;Temp;Humidity;BMP_temperature;BMP_pressure;BME280_temperature;BME280_humidity;BME280_pressure;Samples;Min_cycle;Max_cycle;Signal;HPM_P1;HPM_P2
2021/01/26 00:02:11;;;;;;;7.80;7.10;;;1.40;99.90;;;;;;5073971;28;20341;-51
2021/01/26 00:04:39;;;;;;;9.35;8.20;;;1.40;99.90;;;;;;5073810;28;20302;-53
2021/01/26 00:07:07;;;;;;;8.88;7.70;;;1.40;99.90;;;;;;5074030;28;20215;-55
2021/01/26 00:09:34;;;;;;;8.80;8.00;;;1.40;99.90;;;;;;5073892;28;20256;-53
2021/01/26 00:12:01;;;;;;;9.35;8.50;;;1.40;99.90;;;;;;5074118;28;20243;-57
2021/01/26 00:14:28;;;;;;;7.83;7.07;;;1.40;99.90;;;;;;5073593;28;20586;-58
2021/01/26 00:16:55;;;;;;;8.07;7.27;;;1.40;99.90;;;;;;5074145;28;20290;-54
2021/01/26 00:19:22;;;;;;;9.68;8.20;;;1.40;99.90;;;;;;5073568;28;20221;-57
2021/01/26 00:21:50;;;;;;;8.23;7.43;;;1.40;99.90;;;;;;5073683;28;20298;-55
2021/01/26 00:24:17;;;;;;;8.82;7.93;;;1.40;99.90;;;;;;5073479;28;20302;-52
2021/01/26 00:26:45;;;;;;;8.77;7.93;;;1.40;99.90;;;;;;5073357;28;20551;-56
2021/01/26 00:29:11;;;;;;;8.25;7.40;;;1.40;99.90;;;;;;5073276;28;20314;-54
2021/01/26 00:31:38;;;;;;;8.40;7.60;;;1.40;99.90;;;;;;5072346;28;20219;-53
2021/01/26 00:34:06;;;;;;;8.50;7.63;;;1.40;99.90;;;;;;5072968;28;20218;-55
2021/01/26 00:36:33;;;;;;;7.95;7.25;;;1.40;99.90;;;;;;5073440;28;20203;-52
2021/01/26 00:39:01;;;;;;;8.65;7.85;;;1.40;99.90;;;;;;5073572;28;20204;-54
2021/01/26 00:41:28;;;;;;;9.30;8.30;;;1.40;99.90;;;;;;5073086;28;20203;-54
2021/01/26 00:43:55;;;;;;;9.13;7.80;;;1.40;99.90;;;;;;5073309;28;20211;-55
2021/01/26 00:46:22;;;;;;;8.57;7.78;;;1.40;99.90;;;;;;5072964;28;20298;-57
2021/01/26 00:48:49;;;;;;;8.75;7.80;;;1.40;99.90;;;;;;5072847;28;20356;-56
2021/01/26 00:51:16;;;;;;;8.32;7.53;;;1.40;99.90;;;;;;5073216;28;20234;-56
2021/01/26 00:53:43;;;;;;;10.23;9.23;;;1.40;99.90;;;;;;5073176;28;20302;-56
2021/01/26 00:56:10;;;;;;;11.23;9.63;;;1.40;99.90;;;;;;5072879;28;20294;-54
2021/01/26 00:58:37;;;;;;;10.40;8.50;;;1.40;99.90;;;;;;5072824;28;20733;-55
2021/01/26 01:01:04;;;;;;;9.27;8.23;;;1.40;99.90;;;;;;5072554;28;20207;-51
2021/01/26 01:03:33;;;;;;;9.75;8.85;;;1.40;99.90;;;;;;5072800;28;20215;-54
2021/01/26 01:06:00;;;;;;;10.80;9.70;;;1.40;99.90;;;;;;5072752;28;20344;-55
2021/01/26 01:08:27;;;;;;;10.18;8.73;;;1.40;99.90;;;;;;5072766;28;20219;-53
2021/01/26 01:10:54;;;;;;;9.53;8.53;;;1.40;99.90;;;;;;5072565;28;20297;-56
2021/01/26 01:13:21;;;;;;;9.80;8.82;;;1.50;99.90;;;;;;5072338;28;20266;-56
2021/01/26 01:15:48;;;;;;;8.67;7.87;;;1.50;99.90;;;;;;5072652;28;20618;-55
2021/01/26 01:18:16;;;;;;;8.93;8.02;;;1.50;99.90;;;;;;5072564;28;20211;-56
2021/01/26 01:20:43;;;;;;;9.93;8.88;;;1.50;99.90;;;;;;5072488;28;20215;-56
2021/01/26 01:23:10;;;;;;;10.00;9.02;;;1.50;99.90;;;;;;5072543;28;20670;-54
2021/01/26 01:25:37;;;;;;;9.57;8.63;;;1.50;99.90;;;;;;5072208;28;20290;-56
2021/01/26 01:28:05;;;;;;;10.73;9.15;;;1.50;99.90;;;;;;5072187;28;20211;-52
2021/01/26 01:30:34;;;;;;;10.15;9.15;;;1.50;99.90;;;;;;5073149;28;20293;-56
2021/01/26 01:33:02;;;;;;;10.07;8.80;;;1.50;99.90;;;;;;5072412;28;20290;-54
2021/01/26 01:35:30;;;;;;;10.77;9.75;;;1.50;99.90;;;;;;5072278;28;20260;-51
2021/01/26 01:37:57;;;;;;;10.45;9.40;;;1.50;99.90;;;;;;5072143;28;20219;-53
2021/01/26 01:40:28;;;;;;;9.60;8.60;;;1.50;99.90;;;;;;5072181;28;20209;-55
2021/01/26 01:42:55;;;;;;;10.67;9.57;;;1.50;99.90;;;;;;5072113;28;20376;-52
2021/01/26 01:45:24;;;;;;;10.30;9.27;;;1.50;99.90;;;;;;5072256;28;20581;-53
2021/01/26 01:47:54;;;;;;;11.00;9.88;;;1.60;99.90;;;;;;5072170;28;20618;-55
2021/01/26 01:50:27;;;;;;;9.90;8.93;;;1.60;99.90;;;;;;5072064;28;20690;-53
2021/01/26 01:52:59;;;;;;;10.45;9.43;;;1.60;99.90;;;;;;5072064;28;20260;-53
2021/01/26 01:55:31;;;;;;;10.98;9.88;;;1.60;99.90;;;;;;5072222;28;20290;-54
2021/01/26 01:58:03;;;;;;;11.18;10.02;;;1.60;99.90;;;;;;5072153;28;20207;-57
2021/01/26 02:00:33;;;;;;;11.77;10.57;;;1.60;99.90;;;;;;5071959;28;20207;-55
2021/01/26 02:03:07;;;;;;;10.38;9.35;;;1.60;99.90;;;;;;5072092;28;20212;-50
2021/01/26 02:05:34;;;;;;;9.77;8.77;;;1.60;99.90;;;;;;5071857;28;20662;-52
2021/01/26 02:08:01;;;;;;;10.45;9.48;;;1.70;99.90;;;;;;5071963;28;20267;-53
2021/01/26 02:10:28;;;;;;;11.07;10.02;;;1.70;99.90;;;;;;5071920;28;20318;-56
2021/01/26 02:12:55;;;;;;;10.07;9.07;;;1.70;99.90;;;;;;5071695;28;20583;-54
2021/01/26 02:15:22;;;;;;;10.77;9.68;;;1.60;99.90;;;;;;5071690;28;20207;-53
2021/01/26 02:18:08;;;;;;;11.15;9.82;;;1.60;99.90;;;;;;5071677;28;20254;-59
2021/01/26 02:21:34;;;;;;;11.15;9.23;;;1.60;99.90;;;;;;5071719;28;20242;-54
2021/01/26 02:24:54;;;;;;;14.25;9.57;;;1.50;99.90;;;;;;5071786;28;20293;-56
2021/01/26 02:27:53;;;;;;;11.88;9.95;;;1.50;99.90;;;;;;5071432;28;20258;-52
2021/01/26 02:30:37;;;;;;;15.52;12.10;;;1.50;99.90;;;;;;5072628;28;20310;-54
2021/01/26 02:33:48;;;;;;;14.82;12.70;;;1.40;99.90;;;;;;5071685;28;20293;-54
2021/01/26 02:36:50;;;;;;;11.90;10.05;;;1.40;99.90;;;;;;5071438;28;20294;-51
2021/01/26 02:39:33;;;;;;;11.07;9.98;;;1.40;99.90;;;;;;5071684;28;20206;-52
2021/01/26 02:42:25;;;;;;;12.32;11.02;;;1.40;99.90;;;;;;5071419;28;20618;-50
2021/01/26 02:45:03;;;;;;;10.10;9.10;;;1.30;99.90;;;;;;5067672;28;20207;-50
2021/01/26 02:47:40;;;;;;;10.30;8.75;;;1.30;99.90;;;;;;5071399;28;20226;-51
2021/01/26 02:50:15;;;;;;;9.95;8.82;;;1.30;99.90;;;;;;5071660;28;20597;-53
2021/01/26 02:52:53;;;;;;;10.48;9.07;;;1.30;99.90;;;;;;5071622;28;20290;-60
2021/01/26 02:55:29;;;;;;;10.57;9.47;;;1.30;99.90;;;;;;5074002;28;20217;-52
2021/01/26 02:58:04;;;;;;;11.98;10.20;;;1.30;99.90;;;;;;5075507;28;20207;-53
2021/01/26 03:00:35;;;;;;;11.30;9.75;;;1.30;99.90;;;;;;5075166;28;20246;-50
2021/01/26 03:03:08;;;;;;;13.20;11.32;;;1.40;99.90;;;;;;5076339;28;20211;-53
2021/01/26 03:05:42;;;;;;;16.23;12.37;;;1.40;99.90;;;;;;5075122;28;20669;-52
2021/01/26 03:08:14;;;;;;;12.82;11.52;;;1.40;99.90;;;;;;5074932;28;20309;-55
2021/01/26 03:10:53;;;;;;;12.97;11.50;;;1.30;99.90;;;;;;5075143;28;20231;-51
2021/01/26 03:13:23;;;;;;;12.73;11.43;;;1.30;99.90;;;;;;5075075;28;20333;-54
2021/01/26 03:16:00;;;;;;;14.10;12.27;;;1.30;99.90;;;;;;5074959;28;20256;-52
2021/01/26 03:18:33;;;;;;;13.35;11.57;;;1.30;99.90;;;;;;5074960;28;20253;-55
2021/01/26 03:21:03;;;;;;;14.90;13.20;;;1.20;99.90;;;;;;5074925;28;20229;-56
2021/01/26 03:23:38;;;;;;;15.55;13.10;;;1.20;99.90;;;;;;5074894;28;20307;-49
2021/01/26 03:26:09;;;;;;;15.00;12.85;;;1.20;99.90;;;;;;5074850;28;20206;-51
2021/01/26 03:28:38;;;;;;;14.68;12.55;;;1.20;99.90;;;;;;5074742;28;20233;-49
2021/01/26 03:31:08;;;;;;;14.45;12.85;;;1.10;99.90;;;;;;5074621;28;20319;-52
2021/01/26 03:33:38;;;;;;;14.60;12.98;;;1.10;99.90;;;;;;5074759;28;20211;-52
2021/01/26 03:36:06;;;;;;;14.48;11.93;;;1.10;99.90;;;;;;5074641;28;20223;-55
2021/01/26 03:38:34;;;;;;;14.27;12.77;;;1.10;99.90;;;;;;5074874;28;20203;-50
2021/01/26 03:41:03;;;;;;;13.93;12.40;;;1.00;99.90;;;;;;5074403;28;20207;-53
2021/01/26 03:43:30;;;;;;;14.68;12.13;;;1.00;99.90;;;;;;5074379;28;20243;-53
2021/01/26 03:46:08;;;;;;;14.27;12.32;;;1.00;99.90;;;;;;5074406;28;20249;-54
2021/01/26 03:48:46;;;;;;;12.90;11.52;;;1.00;99.90;;;;;;5074548;28;20214;-50
2021/01/26 03:51:22;;;;;;;14.57;13.07;;;1.00;99.90;;;;;;5074455;28;20207;-54
2021/01/26 03:54:16;;;;;;;13.50;12.10;;;1.00;99.90;;;;;;5074260;28;20309;-52
2021/01/26 03:57:08;;;;;;;14.23;11.50;;;1.00;99.90;;;;;;5074306;28;20207;-50
2021/01/26 03:59:46;;;;;;;13.73;11.80;;;0.90;99.90;;;;;;5074217;28;20677;-53
2021/01/26 04:02:18;;;;;;;13.98;12.18;;;0.90;99.90;;;;;;5073777;28;20246;-55
2021/01/26 04:04:51;;;;;;;14.85;11.93;;;0.80;99.90;;;;;;5073711;28;20673;-54
2021/01/26 04:07:24;;;;;;;12.55;11.25;;;0.80;99.90;;;;;;5074160;28;20221;-54
2021/01/26 04:09:58;;;;;;;15.80;13.00;;;0.80;99.90;;;;;;5073728;28;20227;-52
2021/01/26 04:12:31;;;;;;;14.10;12.00;;;0.80;99.90;;;;;;5073514;28;20302;-52
2021/01/26 04:15:03;;;;;;;12.97;11.30;;;0.80;99.90;;;;;;5073504;28;20243;-50
2021/01/26 04:17:34;;;;;;;13.05;11.50;;;0.70;99.90;;;;;;5073945;28;20211;-52
2021/01/26 04:20:07;;;;;;;15.57;11.05;;;0.70;99.90;;;;;;5073819;28;20204;-50
2021/01/26 04:22:35;;;;;;;14.88;12.40;;;0.70;99.90;;;;;;5073869;28;20211;-56
2021/01/26 04:25:25;;;;;;;12.57;11.27;;;0.80;99.90;;;;;;5073577;28;20235;-52
2021/01/26 04:27:53;;;;;;;12.52;11.18;;;0.70;99.90;;;;;;5073765;28;20298;-55
2021/01/26 04:30:22;;;;;;;13.48;11.23;;;0.70;99.90;;;;;;5073590;28;20270;-54
2021/01/26 04:32:56;;;;;;;12.40;10.53;;;0.70;99.90;;;;;;5073377;28;20276;-54
2021/01/26 04:35:23;;;;;;;13.75;11.38;;;0.60;99.90;;;;;;5073363;28;20247;-51
2021/01/26 04:37:50;;;;;;;15.27;10.20;;;0.60;99.90;;;;;;5073128;28;20307;-51
2021/01/26 04:40:18;;;;;;;13.18;11.35;;;0.60;99.90;;;;;;5073354;28;20291;-55
2021/01/26 04:42:55;;;;;;;11.85;10.18;;;0.60;99.90;;;;;;5073213;28;20656;-52
2021/01/26 04:45:31;;;;;;;13.65;10.43;;;0.60;99.90;;;;;;5073139;28;20294;-54
2021/01/26 04:48:07;;;;;;;11.85;10.65;;;0.60;99.90;;;;;;5073225;28;20249;-51
2021/01/26 04:50:44;;;;;;;12.77;10.05;;;0.60;99.90;;;;;;5073044;28;20242;-54
2021/01/26 04:53:41;;;;;;;12.07;9.88;;;0.60;99.90;;;;;;5073178;28;20533;-52
2021/01/26 04:56:15;;;;;;;11.00;9.80;;;0.60;99.90;;;;;;5072913;28;20211;-52
2021/01/26 04:59:06;;;;;;;15.25;11.70;;;0.60;99.90;;;;;;5072721;28;20211;-54
2021/01/26 05:01:56;;;;;;;9.80;8.80;;;0.50;99.90;;;;;;5072870;28;20290;-53
2021/01/26 05:04:29;;;;;;;12.25;10.15;;;0.60;99.90;;;;;;5075522;28;20271;-50
2021/01/26 05:07:03;;;;;;;12.00;9.65;;;0.50;99.90;;;;;;5072556;28;20253;-51
2021/01/26 05:09:38;;;;;;;11.77;9.27;;;0.50;99.90;;;;;;5072617;28;20714;-53
2021/01/26 05:12:07;;;;;;;11.60;9.40;;;0.50;99.90;;;;;;5072577;28;20302;-51
2021/01/26 05:14:37;;;;;;;9.82;8.63;;;0.50;99.90;;;;;;5072281;28;20680;-51
2021/01/26 05:17:10;;;;;;;16.90;11.20;;;0.50;99.90;;;;;;5071903;28;20632;-52
2021/01/26 05:19:40;;;;;;;11.85;9.60;;;0.50;99.90;;;;;;5072765;28;20204;-53
2021/01/26 05:22:16;;;;;;;12.27;9.40;;;0.50;99.90;;;;;;5072644;28;20294;-54
2021/01/26 05:24:48;;;;;;;17.80;10.20;;;0.50;99.90;;;;;;5072414;28;20293;-53
2021/01/26 05:27:15;;;;;;;12.05;9.45;;;0.50;99.90;;;;;;5073010;28;20290;-50
2021/01/26 05:29:42;;;;;;;11.73;9.50;;;0.50;99.90;;;;;;5071918;28;20738;-50
2021/01/26 05:32:12;;;;;;;10.77;9.68;;;0.50;99.90;;;;;;5072277;28;20207;-49
2021/01/26 05:34:41;;;;;;;16.65;11.23;;;0.50;99.90;;;;;;5072041;28;20363;-49
2021/01/26 05:37:11;;;;;;;10.55;9.27;;;0.50;99.90;;;;;;5072226;28;20258;-52
2021/01/26 05:39:44;;;;;;;10.73;9.57;;;0.40;99.90;;;;;;5072159;28;20290;-54
2021/01/26 05:42:12;;;;;;;11.77;10.50;;;0.50;99.90;;;;;;5072044;28;20239;-47
2021/01/26 05:44:40;;;;;;;10.27;9.20;;;0.40;99.90;;;;;;5072804;28;20687;-48
2021/01/26 05:47:23;;;;;;;11.45;9.95;;;0.50;99.90;;;;;;5072085;28;20246;-51
2021/01/26 05:49:51;;;;;;;12.63;9.85;;;0.50;99.90;;;;;;5071980;28;20227;-51
2021/01/26 05:52:19;;;;;;;46.72;26.63;;;0.60;99.90;;;;;;5071943;28;20309;-58
2021/01/26 05:54:50;;;;;;;12.52;9.82;;;0.60;99.90;;;;;;5071829;28;20631;-55
2021/01/26 05:57:29;;;;;;;10.05;9.05;;;0.60;99.90;;;;;;5072288;28;20214;-54
2021/01/26 06:00:12;;;;;;;10.35;8.77;;;0.70;99.90;;;;;;5071887;28;20211;-51
2021/01/26 06:02:40;;;;;;;8.48;7.63;;;0.60;99.90;;;;;;5071779;28;20203;-52
2021/01/26 06:05:14;;;;;;;9.33;8.33;;;0.70;99.90;;;;;;5071627;28;20219;-56
2021/01/26 06:07:41;;;;;;;9.75;8.18;;;0.70;99.90;;;;;;5071345;28;20217;-54
2021/01/26 06:10:19;;;;;;;10.13;7.88;;;0.70;99.90;;;;;;5072112;28;20305;-50
2021/01/26 06:12:55;;;;;;;8.30;7.50;;;0.70;99.90;;;;;;5072320;28;20211;-48
2021/01/26 06:15:24;;;;;;;9.03;7.43;;;0.80;99.90;;;;;;5071806;28;20306;-55
2021/01/26 06:18:08;;;;;;;7.80;7.00;;;0.80;99.90;;;;;;5074167;28;20666;-52
2021/01/26 06:20:38;;;;;;;10.70;7.93;;;0.80;99.90;;;;;;5072747;28;20211;-54
2021/01/26 06:23:17;;;;;;;9.40;7.65;;;0.80;99.90;;;;;;5071987;28;20701;-50
2021/01/26 06:25:48;;;;;;;9.23;7.17;;;0.80;99.90;;;;;;5071600;28;20318;-52
2021/01/26 06:28:53;;;;;;;8.02;7.25;;;0.80;99.90;;;;;;5072464;28;20644;-51
2021/01/26 06:31:34;;;;;;;8.32;7.35;;;0.80;99.90;;;;;;5069642;28;20227;-54
2021/01/26 06:34:16;;;;;;;7.93;7.10;;;0.90;99.90;;;;;;5075847;28;20217;-53
2021/01/26 06:37:16;;;;;;;10.80;8.50;;;0.90;99.90;;;;;;5075960;28;20241;-50
2021/01/26 06:40:01;;;;;;;9.23;8.10;;;0.90;99.90;;;;;;5075726;28;20234;-52
2021/01/26 06:42:43;;;;;;;9.35;7.25;;;1.00;99.90;;;;;;5075523;28;20207;-52
2021/01/26 06:45:17;;;;;;;7.95;6.70;;;1.00;99.90;;;;;;5075701;28;20302;-49
2021/01/26 06:48:08;;;;;;;9.63;7.82;;;1.00;99.90;;;;;;5077198;28;20263;-58
2021/01/26 06:50:59;;;;;;;8.45;7.35;;;1.00;99.90;;;;;;5075350;28;20231;-51
2021/01/26 06:53:40;;;;;;;8.45;6.90;;;0.90;99.90;;;;;;5075521;28;20336;-57
2021/01/26 06:56:21;;;;;;;8.80;7.45;;;0.90;99.90;;;;;;5075115;28;20546;-56
2021/01/26 06:59:06;;;;;;;10.17;7.57;;;0.90;99.90;;;;;;5075979;28;20293;-57
2021/01/26 07:02:13;;;;;;;8.30;6.75;;;0.90;99.90;;;;;;5075025;28;20286;-57
2021/01/26 07:05:09;;;;;;;10.60;6.88;;;0.90;99.90;;;;;;5074988;28;20204;-57
2021/01/26 07:08:06;;;;;;;9.07;7.03;;;0.90;99.90;;;;;;5074843;28;20211;-55
2021/01/26 07:10:45;;;;;;;17.67;11.48;;;0.90;99.90;;;;;;5074931;28;20729;-57
2021/01/26 07:13:31;;;;;;;7.63;6.60;;;0.90;99.90;;;;;;5074714;28;20313;-57
2021/01/26 07:16:18;;;;;;;10.80;6.60;;;1.00;99.90;;;;;;5206104;23;20328;-50
2021/01/26 07:19:09;;;;;;;8.65;6.50;;;1.00;99.90;;;;;;5015146;28;20244;-49
2021/01/26 07:21:59;;;;;;;7.95;6.63;;;1.00;99.90;;;;;;5015244;28;20241;-48
2021/01/26 07:24:35;;;;;;;7.80;6.93;;;1.00;99.90;;;;;;5015080;28;20217;-51
2021/01/26 07:27:41;;;;;;;8.35;5.65;;;1.10;99.90;;;;;;5100219;23;20260;-50
2021/01/26 07:30:15;;;;;;;7.83;5.47;;;1.10;99.90;;;;;;5201893;22;20752;-51
2021/01/26 07:32:50;;;;;;;7.20;6.30;;;1.10;99.90;;;;;;5014744;28;20259;-46
2021/01/26 07:35:22;;;;;;;6.30;5.67;;;1.20;99.90;;;;;;5014734;28;20213;-51
2021/01/26 07:37:58;;;;;;;10.68;5.72;;;1.20;99.90;;;;;;5427946;23;20241;-50
2021/01/26 07:40:31;;;;;;;7.38;5.35;;;1.20;99.90;;;;;;5013905;28;20205;-54
2021/01/26 07:43:06;;;;;;;9.15;5.15;;;1.20;99.90;;;;;;5014710;28;20351;-47
2021/01/26 07:45:39;;;;;;;6.57;5.38;;;1.20;99.90;;;;;;5014673;28;20244;-56
2021/01/26 07:48:12;;;;;;;6.18;4.82;;;1.20;99.90;;;;;;5175761;23;20234;-50
2021/01/26 07:50:45;;;;;;;6.25;5.68;;;1.20;99.90;;;;;;4995092;28;20269;-53
2021/01/26 07:56:02;;;;;;;6.47;5.87;;;1.20;99.90;;;;;;5013135;28;20225;-51
2021/01/26 07:58:29;;;;;;;7.55;5.60;;;1.20;99.90;;;;;;5014409;28;20643;-54
2021/01/26 08:00:59;;;;;;;7.88;6.35;;;1.30;99.90;;;;;;5014335;28;20212;-53
2021/01/26 08:03:28;;;;;;;7.28;6.00;;;1.30;99.90;;;;;;5014170;28;20213;-52
2021/01/26 08:05:57;;;;;;;6.88;5.40;;;1.30;99.90;;;;;;5014113;28;20235;-51
2021/01/26 08:08:28;;;;;;;6.78;5.75;;;1.40;99.90;;;;;;5014252;28;20303;-52
2021/01/26 08:11:20;;;;;;;6.85;6.05;;;1.40;99.90;;;;;;5014279;28;20714;-50
2021/01/26 08:13:53;;;;;;;7.03;5.28;;;1.40;99.90;;;;;;5014149;28;20209;-54
2021/01/26 08:16:28;;;;;;;6.35;5.70;;;1.40;99.90;;;;;;5018091;28;20193;-56
2021/01/26 08:18:57;;;;;;;10.18;5.95;;;1.40;99.90;;;;;;5013924;28;20205;-57
2021/01/26 08:21:34;;;;;;;6.78;4.90;;;1.30;99.90;;;;;;5060817;22;20281;-57
2021/01/26 08:24:10;;;;;;;8.20;5.60;;;1.30;99.90;;;;;;5053639;28;20218;-55
2021/01/26 08:26:38;;;;;;;7.90;6.22;;;1.40;99.90;;;;;;5053496;28;20212;-55
2021/01/26 08:29:06;;;;;;;6.67;5.33;;;1.40;99.90;;;;;;5053360;28;20729;-51
2021/01/26 08:31:35;;;;;;;5.68;5.13;;;1.50;99.90;;;;;;5053139;28;20259;-52
2021/01/26 08:34:39;;;;;;;7.47;5.13;;;1.50;99.90;;;;;;5512495;23;20231;-51
2021/01/26 08:37:24;;;;;;;7.93;6.28;;;1.50;99.90;;;;;;5053207;28;20229;-51
2021/01/26 08:39:53;;;;;;;7.47;5.00;;;1.60;99.90;;;;;;5053378;28;20242;-48
2021/01/26 08:43:01;;;;;;;6.40;5.70;;;1.60;99.90;;;;;;5053169;28;20247;-50
2021/01/26 08:45:53;;;;;;;6.45;4.78;;;1.50;99.90;;;;;;5054296;28;20695;-46
2021/01/26 08:48:28;;;;;;;10.20;7.43;;;1.50;99.90;;;;;;5053001;28;20591;-51
2021/01/26 08:51:05;;;;;;;10.00;5.75;;;1.50;99.90;;;;;;5052877;28;20238;-49
2021/01/26 08:53:35;;;;;;;6.05;5.45;;;1.50;99.90;;;;;;5052405;28;20207;-48
2021/01/26 08:56:08;;;;;;;7.43;5.10;;;1.50;99.90;;;;;;5052813;28;20564;-50
2021/01/26 08:58:39;;;;;;;10.98;8.07;;;1.60;99.90;;;;;;5052843;28;20250;-49
2021/01/26 09:01:08;;;;;;;6.05;5.03;;;1.60;99.90;;;;;;5052863;28;20259;-48
2021/01/26 09:03:40;;;;;;;7.73;5.43;;;1.50;99.90;;;;;;5052739;28;20204;-47
2021/01/26 09:06:11;;;;;;;6.28;5.65;;;1.50;99.90;;;;;;5052710;28;20219;-50
2021/01/26 09:09:00;;;;;;;5.90;5.00;;;1.40;99.90;;;;;;5052567;28;20636;-56
2021/01/26 09:11:35;;;;;;;5.93;5.35;;;1.50;99.90;;;;;;5052619;28;20287;-51
2021/01/26 09:14:37;;;;;;;6.53;4.83;;;1.50;99.90;;;;;;5109649;27;20529;-55
2021/01/26 09:17:08;;;;;;;5.90;5.13;;;1.60;99.90;;;;;;5110025;28;20247;-56
2021/01/26 09:19:42;;;;;;;6.63;4.93;;;1.60;99.90;;;;;;5109555;28;20725;-52
2021/01/26 09:22:12;;;;;;;5.75;5.15;;;1.60;99.90;;;;;;5109281;28;20229;-56
2021/01/26 09:24:41;;;;;;;7.10;5.72;;;1.70;99.90;;;;;;5109478;28;20312;-53
2021/01/26 09:27:23;;;;;;;5.60;4.80;;;1.70;99.90;;;;;;5109412;28;20297;-50
2021/01/26 09:30:11;;;;;;;5.53;4.93;;;1.90;99.90;;;;;;5109745;28;20241;-50
2021/01/26 09:32:39;;;;;;;7.00;5.78;;;2.00;99.90;;;;;;5109991;28;20257;-51
2021/01/26 09:35:22;;;;;;;6.32;5.60;;;2.00;99.90;;;;;;5109381;28;20206;-49
2021/01/26 09:38:04;;;;;;;8.38;6.00;;;1.90;99.90;;;;;;5109288;28;20305;-53
2021/01/26 09:40:31;;;;;;;5.90;5.15;;;1.70;99.90;;;;;;5109430;28;20300;-54
2021/01/26 09:43:12;;;;;;;5.82;4.72;;;1.70;99.90;;;;;;5109158;28;20230;-49
2021/01/26 09:45:41;;;;;;;5.63;5.13;;;1.70;99.90;;;;;;5109202;28;20238;-51
2021/01/26 09:48:12;;;;;;;6.95;5.60;;;1.70;99.90;;;;;;5108877;28;20285;-53
2021/01/26 09:50:40;;;;;;;7.32;5.40;;;1.70;99.90;;;;;;5109097;28;20624;-55
2021/01/26 09:53:07;;;;;;;6.38;5.72;;;1.80;99.90;;;;;;5108979;28;20244;-50
2021/01/26 09:55:35;;;;;;;6.95;5.70;;;1.90;99.90;;;;;;5108928;28;20241;-50
2021/01/26 09:58:02;;;;;;;6.47;5.80;;;2.10;99.90;;;;;;5108819;28;20331;-53
2021/01/26 10:00:30;;;;;;;7.55;4.80;;;2.40;99.90;;;;;;5108777;28;20285;-51
2021/01/26 10:03:00;;;;;;;5.65;5.03;;;2.60;99.90;;;;;;5108739;28;20230;-52
2021/01/26 10:05:30;;;;;;;6.57;5.77;;;2.70;99.90;;;;;;5108949;28;20206;-50
2021/01/26 10:08:10;;;;;;;8.30;6.15;;;2.90;99.90;;;;;;5108484;28;20213;-54
2021/01/26 10:10:39;;;;;;;10.45;5.95;;;3.00;99.90;;;;;;5108756;28;20285;-49
2021/01/26 10:13:27;;;;;;;7.22;5.35;;;3.10;99.90;;;;;;5108499;28;20234;-49
2021/01/26 10:15:55;;;;;;;7.13;5.55;;;3.10;99.90;;;;;;5108683;28;20233;-54
2021/01/26 10:18:26;;;;;;;7.97;5.82;;;3.10;99.90;;;;;;5108532;28;20206;-52
2021/01/26 10:20:57;;;;;;;11.77;7.72;;;3.10;99.90;;;;;;5108465;28;20206;-55
2021/01/26 10:23:31;;;;;;;6.75;6.05;;;3.00;99.90;;;;;;5106827;28;20267;-51
2021/01/26 10:26:23;;;;;;;7.88;5.72;;;3.10;99.90;;;;;;5094927;28;20229;-52
2021/01/26 10:29:00;;;;;;;8.15;5.90;;;3.10;99.90;;;;;;5094884;28;20211;-54
2021/01/26 10:31:29;;;;;;;7.63;6.00;;;3.00;99.90;;;;;;5094948;28;20625;-51
2021/01/26 10:33:57;;;;;;;6.25;5.38;;;3.00;99.90;;;;;;5094419;28;20568;-50
2021/01/26 10:36:31;;;;;;;7.55;5.75;;;2.90;99.90;;;;;;5094837;28;20218;-50
2021/01/26 10:39:02;;;;;;;7.78;6.97;;;3.00;99.90;;;;;;5095006;28;20206;-52
2021/01/26 10:41:32;;;;;;;7.40;6.33;;;3.00;99.90;;;;;;5094945;28;20280;-51
2021/01/26 10:44:03;;;;;;;7.57;6.13;;;2.90;99.90;;;;;;5094760;28;20234;-50
2021/01/26 10:46:33;;;;;;;8.83;6.00;;;2.90;99.90;;;;;;5094653;28;20214;-54
2021/01/26 10:49:17;;;;;;;8.37;6.43;;;2.90;99.90;;;;;;5094635;28;20297;-50
2021/01/26 10:51:45;;;;;;;7.93;6.13;;;3.10;99.90;;;;;;5094344;28;20247;-59
2021/01/26 10:54:12;;;;;;;8.63;5.57;;;3.20;99.90;;;;;;5094289;28;20207;-58
2021/01/26 10:56:39;;;;;;;7.47;5.90;;;3.20;99.90;;;;;;5094455;28;20230;-56
2021/01/26 10:59:06;;;;;;;10.32;5.20;;;3.20;99.90;;;;;;5094203;28;20285;-57
2021/01/26 11:01:33;;;;;;;11.10;5.90;;;3.20;99.90;;;;;;5079120;22;20271;-55
2021/01/26 11:04:01;;;;;;;9.32;6.70;;;3.20;99.90;;;;;;5033738;28;20371;-57
2021/01/26 11:06:29;;;;;;;8.00;7.10;;;3.20;99.90;;;;;;5033896;28;20304;-56
2021/01/26 11:08:56;;;;;;;8.48;7.63;;;3.20;99.90;;;;;;5033814;28;20303;-55
2021/01/26 11:11:25;;;;;;;10.10;6.23;;;3.30;99.90;;;;;;5033692;28;20208;-56
2021/01/26 11:13:53;;;;;;;10.68;7.43;;;3.40;99.90;;;;;;5033865;28;20209;-54
2021/01/26 11:16:21;;;;;;;8.10;5.70;;;3.40;99.90;;;;;;5033640;28;20205;-57
2021/01/26 11:18:49;;;;;;;8.50;6.10;;;3.20;99.90;;;;;;5033651;28;20205;-54
2021/01/26 11:21:16;;;;;;;7.57;5.73;;;3.10;99.90;;;;;;5033627;28;20350;-55
2021/01/26 11:23:45;;;;;;;8.73;5.82;;;3.00;99.90;;;;;;5033385;28;20238;-57
2021/01/26 11:26:14;;;;;;;12.57;7.05;;;3.00;99.90;;;;;;5034876;28;20256;-58
2021/01/26 11:28:41;;;;;;;7.90;5.80;;;2.90;99.90;;;;;;5033643;28;20307;-56
2021/01/26 11:31:09;;;;;;;8.27;6.53;;;2.80;99.90;;;;;;5033462;28;20251;-55
2021/01/26 11:33:36;;;;;;;8.70;5.97;;;2.70;99.90;;;;;;5033409;28;20236;-57
2021/01/26 11:36:04;;;;;;;8.05;6.15;;;2.70;99.90;;;;;;5032331;28;20266;-56
2021/01/26 11:38:31;;;;;;;6.18;5.57;;;2.70;99.90;;;;;;5032991;28;20266;-58
2021/01/26 11:41:01;;;;;;;8.65;5.95;;;2.80;99.90;;;;;;5033403;28;20212;-57
2021/01/26 11:43:28;;;;;;;8.10;6.50;;;2.90;99.90;;;;;;5033324;28;20351;-56
2021/01/26 11:45:55;;;;;;;7.20;6.22;;;2.90;99.90;;;;;;5033155;28;20212;-54
2021/01/26 11:48:23;;;;;;;7.32;5.72;;;2.90;99.90;;;;;;5033285;28;20304;-55
2021/01/26 11:50:50;;;;;;;9.27;5.95;;;2.90;99.90;;;;;;5032857;28;20219;-55
2021/01/26 11:53:19;;;;;;;9.27;6.00;;;2.80;99.90;;;;;;5032868;28;20240;-57
2021/01/26 11:55:49;;;;;;;12.18;7.25;;;2.60;99.90;;;;;;5033165;28;20212;-60
2021/01/26 11:58:18;;;;;;;6.97;5.80;;;2.50;99.90;;;;;;5032922;28;20209;-61
2021/01/26 12:00:45;;;;;;;7.23;6.33;;;2.50;99.90;;;;;;5032555;28;20689;-57
2021/01/26 12:03:12;;;;;;;7.35;6.22;;;2.50;99.90;;;;;;5033258;28;20631;-60
2021/01/26 12:05:40;;;;;;;7.35;5.93;;;2.70;99.90;;;;;;5032445;28;20216;-60
2021/01/26 12:08:09;;;;;;;7.43;5.80;;;2.90;99.90;;;;;;5032594;28;20372;-57
2021/01/26 12:10:36;;;;;;;6.18;5.28;;;3.00;99.90;;;;;;5032604;28;20235;-53
2021/01/26 12:13:05;;;;;;;8.23;5.97;;;3.10;99.90;;;;;;5032420;28;20205;-56
2021/01/26 12:18:22;;;;;;;6.75;5.63;;;3.40;99.90;;;;;;4934011;29;20223;-58
2021/01/26 12:20:49;;;;;;;5.70;5.15;;;3.50;99.90;;;;;;4935440;29;20207;-53
2021/01/26 12:23:16;;;;;;;8.10;5.60;;;3.60;99.90;;;;;;4935142;29;20657;-55
2021/01/26 12:25:43;;;;;;;7.03;5.90;;;3.70;99.90;;;;;;4935215;29;20228;-58
2021/01/26 12:28:11;;;;;;;6.57;5.27;;;3.70;99.90;;;;;;4935092;29;20216;-58
2021/01/26 12:30:38;;;;;;;5.90;5.28;;;3.70;99.90;;;;;;4935851;29;20212;-58
2021/01/26 12:33:06;;;;;;;5.88;4.65;;;3.60;99.90;;;;;;4935257;29;20717;-58
2021/01/26 12:35:36;;;;;;;9.73;5.35;;;3.50;99.90;;;;;;4935159;29;20267;-55
2021/01/26 12:38:05;;;;;;;7.97;5.10;;;3.40;99.90;;;;;;4937853;28;20572;-55
2021/01/26 12:40:32;;;;;;;6.15;5.05;;;3.40;99.90;;;;;;4934945;29;20683;-50
2021/01/26 12:43:01;;;;;;;5.95;5.35;;;3.50;99.90;;;;;;4934892;29;20270;-51
2021/01/26 12:45:30;;;;;;;5.80;4.82;;;3.60;99.90;;;;;;4935162;29;20220;-58
2021/01/26 12:47:58;;;;;;;7.20;5.55;;;3.80;99.90;;;;;;4934593;29;20212;-55
2021/01/26 12:50:30;;;;;;;5.18;4.68;;;4.00;99.90;;;;;;4935067;29;20215;-52
2021/01/26 12:52:58;;;;;;;7.07;5.50;;;4.00;99.90;;;;;;4934850;29;20219;-53
2021/01/26 12:55:25;;;;;;;9.93;6.18;;;4.10;99.90;;;;;;4935833;29;20727;-54
2021/01/26 12:57:53;;;;;;;6.38;4.97;;;4.20;99.90;;;;;;4935119;29;20642;-55
2021/01/26 13:00:21;;;;;;;5.55;5.00;;;4.30;99.90;;;;;;4934826;29;20675;-52
2021/01/26 13:02:49;;;;;;;6.07;4.72;;;4.30;99.90;;;;;;4934742;29;20264;-56
2021/01/26 13:05:18;;;;;;;6.95;4.20;;;4.20;99.90;;;;;;4934790;29;20266;-53
2021/01/26 13:07:45;;;;;;;6.07;5.10;;;3.90;99.90;;;;;;4934785;29;20626;-58
2021/01/26 13:10:15;;;;;;;6.82;5.10;;;3.60;99.90;;;;;;4935680;29;20211;-54
2021/01/26 13:12:43;;;;;;;9.35;5.07;;;3.50;99.90;;;;;;5066847;23;20259;-59
2021/01/26 13:17:54;;;;;;;6.25;4.93;;;3.00;99.90;;;;;;4953853;29;20227;-58
2021/01/26 13:20:22;;;;;;;8.60;5.63;;;2.90;99.90;;;;;;4953695;29;20243;-56
2021/01/26 13:22:50;;;;;;;6.85;5.20;;;2.70;99.90;;;;;;4953609;29;20235;-57
2021/01/26 13:25:20;;;;;;;8.13;5.65;;;2.70;99.90;;;;;;4953905;29;20208;-54
2021/01/26 13:27:48;;;;;;;8.07;6.20;;;2.60;99.90;;;;;;4954044;29;20262;-60
2021/01/26 13:30:17;;;;;;;9.97;5.57;;;2.60;99.90;;;;;;4953562;28;20674;-62
2021/01/26 13:32:44;;;;;;;7.40;5.13;;;2.60;99.90;;;;;;4953498;29;20250;-60